createdAt,value
2022-10-02T00:00:57.804Z,11.60
2022-10-02T00:01:57.836Z,11.63
2022-10-02T00:02:57.778Z,11.62
2022-10-02T00:03:57.835Z,11.60
2022-10-02T00:04:57.767Z,11.62
2022-10-02T00:05:57.716Z,11.60
2022-10-02T00:06:57.716Z,11.60
2022-10-02T00:07:57.718Z,11.60
2022-10-02T00:08:57.688Z,11.60
2022-10-02T00:09:57.675Z,11.59
2022-10-02T00:10:57.696Z,11.60
2022-10-02T00:11:57.635Z,11.63
2022-10-02T00:12:57.664Z,11.60
2022-10-02T00:13:57.617Z,11.60
2022-10-02T00:14:57.657Z,11.63
2022-10-02T00:15:57.600Z,11.60
2022-10-02T00:16:57.684Z,11.57
2022-10-02T00:17:57.583Z,11.59
2022-10-02T00:18:57.596Z,11.60
2022-10-02T00:19:57.584Z,11.62
2022-10-02T00:20:57.576Z,11.62
2022-10-02T00:21:57.531Z,11.60
2022-10-02T00:22:57.536Z,11.63
2022-10-02T00:23:57.505Z,11.63
2022-10-02T00:24:57.525Z,11.63
2022-10-02T00:25:57.600Z,11.62
2022-10-02T00:26:57.480Z,11.63
2022-10-02T00:27:57.505Z,11.63
2022-10-02T00:28:57.476Z,11.63
2022-10-02T00:29:57.456Z,11.62
2022-10-02T00:30:57.468Z,11.63
2022-10-02T00:31:57.566Z,11.65
2022-10-02T00:32:57.436Z,11.63
2022-10-02T00:33:57.416Z,11.63
2022-10-02T00:34:57.396Z,11.62
2022-10-02T00:35:57.421Z,11.65
2022-10-02T00:36:57.424Z,11.63
2022-10-02T00:37:57.388Z,11.65
2022-10-02T00:38:57.337Z,11.63
2022-10-02T00:39:57.328Z,11.65
2022-10-02T00:40:57.354Z,11.63
2022-10-02T00:41:57.317Z,11.63
2022-10-02T00:42:57.324Z,11.65
2022-10-02T00:43:57.276Z,11.66
2022-10-02T00:44:57.293Z,11.63
2022-10-02T00:45:57.356Z,11.65
2022-10-02T00:46:57.581Z,11.66
2022-10-02T00:47:57.269Z,11.66
2022-10-02T00:48:57.252Z,11.66
2022-10-02T00:49:57.209Z,11.65
2022-10-02T00:50:57.209Z,11.68
2022-10-02T00:51:57.221Z,11.69
2022-10-02T00:52:57.255Z,11.68
2022-10-02T00:53:57.210Z,11.69
2022-10-02T00:54:57.196Z,11.69
2022-10-02T00:55:57.164Z,11.66
2022-10-02T00:56:57.150Z,11.63
2022-10-02T00:57:57.157Z,11.65
2022-10-02T00:58:57.140Z,11.62
2022-10-02T00:59:57.109Z,11.63
2022-10-02T01:00:57.187Z,11.65
2022-10-02T01:01:57.196Z,11.66
2022-10-02T01:02:57.109Z,11.68
2022-10-02T01:03:57.089Z,11.69
2022-10-02T01:04:57.051Z,11.69
2022-10-02T01:05:57.049Z,11.69
2022-10-02T01:06:57.069Z,11.69
2022-10-02T01:07:57.033Z,11.66
2022-10-02T01:08:57.031Z,11.68
2022-10-02T01:09:57.015Z,11.68
2022-10-02T01:10:57.001Z,11.68
2022-10-02T01:11:56.981Z,11.69
2022-10-02T01:12:56.961Z,11.69
2022-10-02T01:13:57.001Z,11.69
2022-10-02T01:14:56.961Z,11.70
2022-10-02T01:15:56.929Z,11.70
2022-10-02T01:16:57.015Z,11.70
2022-10-02T01:17:56.925Z,11.72
2022-10-02T01:18:56.940Z,11.73
2022-10-02T01:19:56.901Z,11.73
2022-10-02T01:20:56.905Z,11.75
2022-10-02T01:21:56.861Z,11.75
2022-10-02T01:22:56.881Z,11.75
2022-10-02T01:23:56.852Z,11.75
2022-10-02T01:24:56.954Z,11.75
2022-10-02T01:25:56.821Z,11.73
2022-10-02T01:26:56.821Z,11.77
2022-10-02T01:27:56.834Z,11.77
2022-10-02T01:28:56.800Z,11.77
2022-10-02T01:29:56.802Z,11.78
2022-10-02T01:30:56.781Z,11.81
2022-10-02T01:31:56.806Z,11.83
2022-10-02T01:32:56.730Z,11.84
2022-10-02T01:33:56.777Z,11.84
2022-10-02T01:34:56.745Z,11.86
2022-10-02T01:35:56.742Z,11.86
2022-10-02T01:36:56.746Z,11.90
2022-10-02T01:37:56.682Z,11.95
2022-10-02T01:38:56.681Z,11.97
2022-10-02T01:39:56.682Z,11.99
2022-10-02T01:40:56.670Z,12.02
2022-10-02T01:41:56.645Z,12.04
2022-10-02T01:42:56.649Z,12.07
2022-10-02T01:43:56.625Z,12.10
2022-10-02T01:44:56.603Z,12.13
2022-10-02T01:45:56.695Z,12.15
2022-10-02T01:46:56.986Z,12.15
2022-10-02T01:47:56.574Z,12.18
2022-10-02T01:48:56.561Z,12.18
2022-10-02T01:49:56.573Z,12.18
2022-10-02T01:50:56.553Z,12.18
2022-10-02T01:51:56.561Z,12.20
2022-10-02T01:52:56.534Z,12.20
2022-10-02T01:53:56.513Z,12.21
2022-10-02T01:54:56.489Z,12.22
2022-10-02T01:55:56.518Z,12.27
2022-10-02T01:56:56.462Z,12.27
2022-10-02T01:57:56.463Z,12.27
2022-10-02T01:58:56.446Z,12.28
2022-10-02T01:59:56.474Z,12.28
2022-10-02T02:00:56.463Z,12.28
2022-10-02T02:01:56.503Z,12.29
2022-10-02T02:02:56.429Z,12.29
2022-10-02T02:03:56.414Z,12.29
2022-10-02T02:04:56.396Z,12.28
2022-10-02T02:05:56.387Z,12.29
2022-10-02T02:06:56.370Z,12.31
2022-10-02T02:07:56.370Z,12.32
2022-10-02T02:08:59.679Z,12.35
2022-10-02T02:09:57.354Z,12.36
2022-10-02T02:10:56.318Z,12.32
2022-10-02T02:11:56.334Z,12.36
2022-10-02T02:12:56.325Z,12.36
2022-10-02T02:13:56.294Z,12.35
2022-10-02T02:14:56.262Z,12.36
2022-10-02T02:15:56.366Z,12.37
2022-10-02T02:16:56.288Z,12.37
2022-10-02T02:17:56.278Z,12.36
2022-10-02T02:18:56.215Z,12.36
2022-10-02T02:19:56.225Z,12.36
2022-10-02T02:20:56.219Z,12.35
2022-10-02T02:21:56.194Z,12.36
2022-10-02T02:22:56.262Z,12.36
2022-10-02T02:23:56.187Z,12.35
2022-10-02T02:24:56.147Z,12.35
2022-10-02T02:25:56.151Z,12.32
2022-10-02T02:26:56.163Z,12.31
2022-10-02T02:27:56.197Z,12.32
2022-10-02T02:28:56.106Z,12.32
2022-10-02T02:29:56.127Z,12.31
2022-10-02T02:30:56.106Z,12.32
2022-10-02T02:31:56.160Z,12.35
2022-10-02T02:32:56.075Z,12.32
2022-10-02T02:33:56.067Z,12.36
2022-10-02T02:35:02.903Z,12.36
2022-10-02T02:36:27.788Z,12.36
2022-10-02T02:36:56.028Z,12.36
2022-10-02T02:37:56.026Z,12.36
2022-10-02T02:38:56.007Z,12.36
2022-10-02T02:39:55.982Z,12.36
2022-10-02T02:40:55.980Z,12.36
2022-10-02T02:41:56.035Z,12.39
2022-10-02T02:42:55.967Z,12.40
2022-10-02T02:43:55.954Z,12.42
2022-10-02T02:44:55.958Z,12.42
2022-10-02T02:45:55.992Z,12.43
2022-10-02T02:46:55.942Z,12.43
2022-10-02T02:47:55.902Z,12.43
2022-10-02T02:48:55.894Z,12.43
2022-10-02T02:49:55.887Z,12.46
2022-10-02T02:50:55.887Z,12.43
2022-10-02T02:51:55.871Z,12.43
2022-10-02T02:52:55.882Z,12.45
2022-10-02T02:53:55.826Z,12.46
2022-10-02T02:54:55.840Z,12.46
2022-10-02T02:55:55.811Z,12.47
2022-10-02T02:56:55.808Z,12.46
2022-10-02T02:57:55.799Z,12.47
2022-10-02T02:58:55.800Z,12.47
2022-10-02T02:59:55.755Z,12.46
2022-10-02T03:00:55.808Z,12.45
2022-10-02T03:01:55.812Z,12.46
2022-10-02T03:02:55.747Z,12.46
2022-10-02T03:03:55.763Z,12.46
2022-10-02T03:04:55.715Z,12.47
2022-10-02T03:05:55.692Z,12.47
2022-10-02T03:06:55.707Z,12.49
2022-10-02T03:07:55.696Z,12.47
2022-10-02T03:08:55.707Z,12.50
2022-10-02T03:09:55.667Z,12.50
2022-10-02T03:10:55.647Z,12.49
2022-10-02T03:11:55.655Z,12.50
2022-10-02T03:12:55.628Z,12.49
2022-10-02T03:13:55.651Z,12.53
2022-10-02T03:14:55.619Z,12.54
2022-10-02T03:15:55.652Z,12.54
2022-10-02T03:16:55.591Z,12.54
2022-10-02T03:17:55.568Z,12.53
2022-10-02T03:18:55.590Z,12.57
2022-10-02T03:19:55.599Z,12.57
2022-10-02T03:20:55.536Z,12.58
2022-10-02T03:21:55.542Z,12.62
2022-10-02T03:22:55.573Z,12.65
2022-10-02T03:23:55.541Z,12.62
2022-10-02T03:24:55.512Z,12.67
2022-10-02T03:25:55.468Z,12.68
2022-10-02T03:26:55.500Z,12.70
2022-10-02T03:27:55.520Z,12.70
2022-10-02T03:28:56.945Z,12.70
2022-10-02T03:29:55.464Z,12.70
2022-10-02T03:30:55.440Z,12.72
2022-10-02T03:31:55.455Z,12.73
2022-10-02T03:32:55.404Z,12.73
2022-10-02T03:33:55.422Z,12.75
2022-10-02T03:34:55.408Z,12.76
2022-10-02T03:35:55.380Z,12.78
2022-10-02T03:36:55.360Z,12.79
2022-10-02T03:37:55.332Z,12.79
2022-10-02T03:39:12.933Z,12.78
2022-10-02T03:39:56.352Z,12.79
2022-10-02T03:40:55.333Z,12.80
2022-10-02T03:41:55.291Z,12.80
2022-10-02T03:42:55.299Z,12.80
2022-10-02T03:43:55.264Z,12.80
2022-10-02T03:44:55.260Z,12.79
2022-10-02T03:45:55.260Z,12.79
2022-10-02T03:46:55.319Z,12.80
2022-10-02T03:47:55.252Z,12.80
2022-10-02T03:48:55.213Z,12.80
2022-10-02T03:49:55.216Z,12.82
2022-10-02T03:50:55.260Z,12.82
2022-10-02T03:51:55.204Z,12.82
2022-10-02T03:52:55.185Z,12.82
2022-10-02T03:53:55.154Z,12.82
2022-10-02T03:54:55.276Z,12.83
2022-10-02T03:55:55.144Z,12.83
2022-10-02T03:56:55.132Z,12.83
2022-10-02T03:57:55.161Z,12.86
2022-10-02T03:58:55.156Z,12.85
2022-10-02T03:59:55.184Z,12.86
2022-10-02T04:00:55.220Z,12.86
2022-10-02T04:01:55.282Z,12.91
2022-10-02T04:02:55.272Z,12.91
2022-10-02T04:03:55.313Z,12.90
2022-10-02T04:04:55.330Z,12.91
2022-10-02T04:05:55.293Z,12.94
2022-10-02T04:06:55.032Z,12.94
2022-10-02T04:07:55.020Z,12.95
2022-10-02T04:08:54.992Z,12.94
2022-10-02T04:09:55.032Z,12.94
2022-10-02T04:10:55.000Z,12.93
2022-10-02T04:11:54.964Z,12.94
2022-10-02T04:12:54.948Z,12.94
2022-10-02T04:13:54.939Z,12.94
2022-10-02T04:14:54.953Z,12.94
2022-10-02T04:15:54.998Z,12.93
2022-10-02T04:16:54.924Z,12.94
2022-10-02T04:17:58.943Z,12.93
2022-10-02T04:18:54.885Z,12.91
2022-10-02T04:19:54.866Z,12.91
2022-10-02T04:20:54.865Z,12.90
2022-10-02T04:21:54.860Z,12.90
2022-10-02T04:22:54.866Z,12.90
2022-10-02T04:23:54.844Z,12.87
2022-10-02T04:24:54.819Z,12.86
2022-10-02T04:25:54.816Z,12.86
2022-10-02T04:26:54.829Z,12.85
2022-10-02T04:27:54.840Z,12.85
2022-10-02T04:28:54.797Z,12.83
2022-10-02T04:29:54.786Z,12.82
2022-10-02T04:30:54.773Z,12.82
2022-10-02T04:31:54.839Z,12.79
2022-10-02T04:32:54.747Z,12.78
2022-10-02T04:33:54.765Z,12.78
2022-10-02T04:34:54.706Z,12.76
2022-10-02T04:35:54.698Z,12.73
2022-10-02T04:36:54.705Z,12.72
2022-10-02T04:37:54.729Z,12.68
2022-10-02T04:38:54.686Z,12.67
2022-10-02T04:39:54.660Z,12.65
2022-10-02T04:40:54.661Z,12.65
2022-10-02T04:41:54.658Z,12.67
2022-10-02T04:42:54.627Z,12.65
2022-10-02T04:43:54.631Z,12.64
2022-10-02T04:44:54.597Z,12.62
2022-10-02T04:45:54.687Z,12.61
2022-10-02T04:46:54.565Z,12.60
2022-10-02T04:47:54.571Z,12.61
2022-10-02T04:48:54.585Z,12.62
2022-10-02T04:49:54.526Z,12.64
2022-10-02T04:50:54.601Z,12.64
2022-10-02T04:51:54.506Z,12.64
2022-10-02T04:52:54.533Z,12.64
2022-10-02T04:53:54.490Z,12.65
2022-10-02T04:54:54.489Z,12.64
2022-10-02T04:55:54.479Z,12.65
2022-10-02T04:56:54.633Z,12.67
2022-10-02T04:57:54.449Z,12.67
2022-10-02T04:58:54.442Z,12.68
2022-10-02T04:59:54.433Z,12.72
2022-10-02T05:00:54.581Z,12.73
2022-10-02T05:01:54.446Z,12.73
2022-10-02T05:02:54.389Z,12.75
2022-10-02T05:03:54.409Z,12.75
2022-10-02T05:04:54.369Z,12.76
2022-10-02T05:05:54.353Z,12.76
2022-10-02T05:06:54.358Z,12.76
2022-10-02T05:07:54.359Z,12.79
2022-10-02T05:08:54.329Z,12.80
2022-10-02T05:09:54.325Z,12.82
2022-10-02T05:10:54.329Z,12.82
2022-10-02T05:11:54.277Z,12.82
2022-10-02T05:12:54.278Z,12.82
2022-10-02T05:13:54.262Z,12.83
2022-10-02T05:14:54.263Z,12.83
2022-10-02T05:15:54.333Z,12.85
2022-10-02T05:16:54.273Z,12.87
2022-10-02T05:17:54.220Z,12.90
2022-10-02T05:18:54.236Z,12.87
2022-10-02T05:19:54.219Z,12.87
2022-10-02T05:20:54.210Z,12.87
2022-10-02T05:21:54.183Z,12.90
2022-10-02T05:22:54.174Z,12.87
2022-10-02T05:23:54.162Z,12.90
2022-10-02T05:24:54.186Z,12.87
2022-10-02T05:25:54.170Z,12.90
2022-10-02T05:26:54.122Z,12.91
2022-10-02T05:27:54.221Z,12.93
2022-10-02T05:28:54.118Z,12.93
2022-10-02T05:29:54.089Z,12.91
2022-10-02T05:30:54.089Z,12.93
2022-10-02T05:31:54.169Z,12.91
2022-10-02T05:32:54.090Z,12.93
2022-10-02T05:33:54.050Z,12.94
2022-10-02T05:34:54.035Z,12.94
2022-10-02T05:35:54.030Z,12.95
2022-10-02T05:36:54.011Z,12.97
2022-10-02T05:37:54.011Z,12.97
2022-10-02T05:38:54.006Z,12.97
2022-10-02T05:39:57.930Z,12.97
2022-10-02T05:40:53.974Z,13.01
2022-10-02T05:41:54.012Z,13.01
2022-10-02T05:42:53.946Z,13.00
2022-10-02T05:43:53.960Z,13.01
2022-10-02T05:44:53.947Z,13.01
2022-10-02T05:45:53.922Z,13.00
2022-10-02T05:46:53.943Z,13.00
2022-10-02T05:47:53.902Z,13.00
2022-10-02T05:48:53.890Z,13.01
2022-10-02T05:49:53.909Z,13.03
2022-10-02T05:50:53.874Z,13.01
2022-10-02T05:51:53.934Z,13.01
2022-10-02T05:52:53.979Z,13.00
2022-10-02T05:53:53.962Z,13.01
2022-10-02T05:54:54.032Z,13.01
2022-10-02T05:55:54.026Z,13.00
2022-10-02T05:56:54.015Z,13.00
2022-10-02T05:57:53.833Z,13.01
2022-10-02T05:58:53.835Z,13.01
2022-10-02T05:59:53.999Z,13.01
2022-10-02T06:00:53.944Z,13.04
2022-10-02T06:01:54.199Z,13.05
2022-10-02T06:02:53.898Z,13.05
2022-10-02T06:03:53.987Z,13.08
2022-10-02T06:04:54.021Z,13.08
2022-10-02T06:05:53.875Z,13.11
2022-10-02T06:06:53.931Z,13.13
2022-10-02T06:07:53.902Z,13.15
2022-10-02T06:08:53.886Z,13.16
2022-10-02T06:09:54.268Z,13.18
2022-10-02T06:10:53.862Z,13.18
2022-10-02T06:11:53.787Z,13.19
2022-10-02T06:12:53.683Z,13.20
2022-10-02T06:13:53.594Z,13.23
2022-10-02T06:14:53.585Z,13.23
2022-10-02T06:15:53.582Z,13.27
2022-10-02T06:16:53.631Z,13.28
2022-10-02T06:17:53.559Z,13.30
2022-10-02T06:18:53.543Z,13.30
2022-10-02T06:19:53.535Z,13.31
2022-10-02T06:20:53.507Z,13.30
2022-10-02T06:21:53.567Z,13.31
2022-10-02T06:22:53.507Z,13.31
2022-10-02T06:23:53.510Z,13.31
2022-10-02T06:24:53.505Z,13.30
2022-10-02T06:25:53.476Z,13.33
2022-10-02T06:26:53.457Z,13.33
2022-10-02T06:27:53.517Z,13.35
2022-10-02T06:28:53.432Z,13.33
2022-10-02T06:29:53.416Z,13.35
2022-10-02T06:30:53.411Z,13.37
2022-10-02T06:31:53.499Z,13.39
2022-10-02T06:32:53.379Z,13.38
2022-10-02T06:33:53.415Z,13.41
2022-10-02T06:34:53.355Z,13.44
2022-10-02T06:35:53.387Z,13.46
2022-10-02T06:36:53.335Z,13.46
2022-10-02T06:37:53.327Z,13.49
2022-10-02T06:38:53.327Z,13.49
2022-10-02T06:39:53.304Z,13.52
2022-10-02T06:40:53.328Z,13.53
2022-10-02T06:41:53.308Z,13.53
2022-10-02T06:42:53.390Z,13.54
2022-10-02T06:43:53.300Z,13.57
2022-10-02T06:44:53.267Z,13.59
2022-10-02T06:45:53.352Z,13.62
2022-10-02T06:46:53.256Z,13.63
2022-10-02T06:47:53.227Z,13.62
2022-10-02T06:48:53.219Z,13.62
2022-10-02T06:49:53.399Z,13.65
2022-10-02T06:50:53.200Z,13.65
2022-10-02T06:51:53.196Z,13.65
2022-10-02T06:52:53.155Z,13.67
2022-10-02T06:53:53.176Z,13.65
2022-10-02T06:54:53.167Z,13.65
2022-10-02T06:55:53.195Z,13.67
2022-10-02T06:56:53.107Z,13.67
2022-10-02T06:57:53.135Z,13.68
2022-10-02T06:58:53.106Z,13.70
2022-10-02T06:59:53.155Z,13.68
2022-10-02T07:00:53.160Z,13.68
2022-10-02T07:01:57.143Z,13.67
2022-10-02T07:02:53.041Z,13.67
2022-10-02T07:03:53.067Z,13.67
2022-10-02T07:04:53.040Z,13.65
2022-10-02T07:05:53.152Z,13.65
2022-10-02T07:06:53.048Z,13.62
2022-10-02T07:07:53.008Z,13.63
2022-10-02T07:08:52.992Z,13.65
2022-10-02T07:09:53.020Z,13.63
2022-10-02T07:10:52.961Z,13.63
2022-10-02T07:11:52.988Z,13.63
2022-10-02T07:12:53.028Z,13.60
2022-10-02T07:13:52.964Z,13.60
2022-10-02T07:14:52.953Z,13.59
2022-10-02T07:15:53.027Z,13.60
2022-10-02T07:16:53.013Z,13.62
2022-10-02T07:17:53.021Z,13.62
2022-10-02T07:18:53.127Z,13.62
2022-10-02T07:19:53.008Z,13.63
2022-10-02T07:20:53.004Z,13.63
2022-10-02T07:21:53.071Z,13.65
2022-10-02T07:22:53.068Z,13.67
2022-10-02T07:23:53.104Z,13.67
2022-10-02T07:24:53.032Z,13.68
2022-10-02T07:25:53.059Z,13.68
2022-10-02T07:26:53.061Z,13.71
2022-10-02T07:27:52.928Z,13.71
2022-10-02T07:28:52.760Z,13.70
2022-10-02T07:29:52.792Z,13.67
2022-10-02T07:30:53.112Z,13.67
2022-10-02T07:31:52.788Z,13.67
2022-10-02T07:32:52.760Z,13.67
2022-10-02T07:33:52.721Z,13.65
2022-10-02T07:34:52.701Z,13.67
2022-10-02T07:35:52.708Z,13.67
2022-10-02T07:36:52.696Z,13.67
2022-10-02T07:37:52.692Z,13.67
2022-10-02T07:38:52.665Z,13.65
2022-10-02T07:39:52.676Z,13.63
2022-10-02T07:40:53.786Z,13.62
2022-10-02T07:41:52.636Z,13.63
2022-10-02T07:42:52.612Z,13.62
2022-10-02T07:43:52.612Z,13.65
2022-10-02T07:44:52.597Z,13.63
2022-10-02T07:45:52.659Z,13.63
2022-10-02T07:46:52.592Z,13.65
2022-10-02T07:47:52.576Z,13.67
2022-10-02T07:48:52.544Z,13.68
2022-10-02T07:49:52.556Z,13.71
2022-10-02T07:50:52.561Z,13.71
2022-10-02T07:51:52.525Z,13.71
2022-10-02T07:52:52.513Z,13.71
2022-10-02T07:53:52.507Z,13.71
2022-10-02T07:54:52.493Z,13.71
2022-10-02T07:55:52.497Z,13.72
2022-10-02T07:56:52.457Z,13.75
2022-10-02T07:57:52.453Z,13.72
2022-10-02T07:58:52.442Z,13.72
2022-10-02T07:59:52.420Z,13.75
2022-10-02T08:00:52.464Z,13.75
2022-10-02T08:01:52.469Z,13.75
2022-10-02T08:02:52.476Z,13.79
2022-10-02T08:03:52.385Z,13.83
2022-10-02T08:04:52.380Z,13.85
2022-10-02T08:05:52.354Z,13.87
2022-10-02T08:06:52.376Z,13.90
2022-10-02T08:07:52.366Z,13.92
2022-10-02T08:08:52.350Z,13.96
2022-10-02T08:09:52.321Z,13.95
2022-10-02T08:10:52.291Z,13.99
2022-10-02T08:11:52.298Z,14.03
2022-10-02T08:12:52.294Z,14.08
2022-10-02T08:13:52.295Z,14.11
2022-10-02T08:14:52.275Z,14.12
2022-10-02T08:15:52.261Z,14.08
2022-10-02T08:16:52.298Z,14.07
2022-10-02T08:17:52.257Z,14.11
2022-10-02T08:18:52.229Z,14.10
2022-10-02T08:19:52.236Z,14.11
2022-10-02T08:20:52.201Z,14.11
2022-10-02T08:21:52.200Z,14.18
2022-10-02T08:22:52.184Z,14.17
2022-10-02T08:23:52.173Z,14.20
2022-10-02T08:24:52.143Z,14.23
2022-10-02T08:25:52.162Z,14.18
2022-10-02T08:26:52.125Z,14.12
2022-10-02T08:27:52.143Z,14.12
2022-10-02T08:28:52.089Z,14.15
2022-10-02T08:29:52.093Z,14.17
2022-10-02T08:30:52.076Z,14.18
2022-10-02T08:31:52.178Z,14.22
2022-10-02T08:32:52.087Z,14.23
2022-10-02T08:33:52.054Z,14.20
2022-10-02T08:34:52.046Z,14.23
2022-10-02T08:35:52.049Z,14.23
2022-10-02T08:36:52.046Z,14.22
2022-10-02T08:37:51.999Z,14.18
2022-10-02T08:38:54.739Z,14.20
2022-10-02T08:39:51.979Z,14.22
2022-10-02T08:40:52.013Z,14.25
2022-10-02T08:41:51.965Z,14.28
2022-10-02T08:42:51.938Z,14.30
2022-10-02T08:43:51.971Z,14.33
2022-10-02T08:44:51.987Z,14.36
2022-10-02T08:45:51.995Z,14.40
2022-10-02T08:46:51.901Z,14.43
2022-10-02T08:47:51.926Z,14.45
2022-10-02T08:48:51.890Z,14.50
2022-10-02T08:49:51.874Z,14.53
2022-10-02T08:50:51.852Z,14.54
2022-10-02T08:51:51.851Z,14.55
2022-10-02T08:52:51.854Z,14.59
2022-10-02T08:53:51.828Z,14.62
2022-10-02T08:54:51.809Z,14.65
2022-10-02T08:55:51.813Z,14.63
2022-10-02T08:56:51.770Z,14.60
2022-10-02T08:57:51.775Z,14.63
2022-10-02T08:58:51.762Z,14.65
2022-10-02T08:59:51.777Z,14.68
2022-10-02T09:00:51.781Z,14.70
2022-10-02T09:01:54.172Z,14.73
2022-10-02T09:02:51.725Z,14.70
2022-10-02T09:03:51.723Z,14.70
2022-10-02T09:04:51.699Z,14.73
2022-10-02T09:05:51.743Z,14.79
2022-10-02T09:06:51.703Z,14.81
2022-10-02T09:07:51.667Z,14.79
2022-10-02T09:08:51.682Z,14.79
2022-10-02T09:09:51.658Z,14.78
2022-10-02T09:10:51.662Z,14.72
2022-10-02T09:11:51.646Z,14.73
2022-10-02T09:12:51.595Z,14.78
2022-10-02T09:13:51.590Z,14.78
2022-10-02T09:14:55.593Z,14.79
2022-10-02T09:15:52.594Z,14.79
2022-10-02T09:16:51.594Z,14.79
2022-10-02T09:17:51.555Z,14.79
2022-10-02T09:18:51.631Z,14.81
2022-10-02T09:19:51.526Z,14.82
2022-10-02T09:20:51.531Z,14.86
2022-10-02T09:21:51.554Z,14.91
2022-10-02T09:22:51.515Z,14.89
2022-10-02T09:23:51.538Z,14.96
2022-10-02T09:24:51.514Z,15.00
2022-10-02T09:25:51.534Z,15.02
2022-10-02T09:26:51.534Z,15.04
2022-10-02T09:27:51.526Z,15.10
2022-10-02T09:28:51.456Z,15.18
2022-10-02T09:29:51.438Z,15.22
2022-10-02T09:30:51.414Z,15.21
2022-10-02T09:31:51.552Z,15.28
2022-10-02T09:32:51.555Z,15.28
2022-10-02T09:33:51.426Z,15.28
2022-10-02T09:34:51.454Z,15.29
2022-10-02T09:35:51.456Z,15.28
2022-10-02T09:36:51.467Z,15.27
2022-10-02T09:37:51.560Z,15.28
2022-10-02T09:38:51.499Z,15.29
2022-10-02T09:39:51.511Z,15.36
2022-10-02T09:40:51.478Z,15.43
2022-10-02T09:41:51.712Z,15.47
2022-10-02T09:42:51.498Z,15.54
2022-10-02T09:43:51.550Z,15.49
2022-10-02T09:44:51.529Z,15.49
2022-10-02T09:45:51.566Z,15.44
2022-10-02T09:46:51.482Z,15.42
2022-10-02T09:47:51.231Z,15.42
2022-10-02T09:48:51.196Z,15.36
2022-10-02T09:49:51.191Z,15.31
2022-10-02T09:50:51.173Z,15.33
2022-10-02T09:51:51.227Z,15.31
2022-10-02T09:52:51.168Z,15.27
2022-10-02T09:53:51.171Z,15.28
2022-10-02T09:54:51.139Z,15.29
2022-10-02T09:55:51.111Z,15.31
2022-10-02T09:56:51.127Z,15.36
2022-10-02T09:57:51.087Z,15.39
2022-10-02T09:58:51.592Z,15.42
2022-10-02T09:59:51.079Z,15.43
2022-10-02T10:00:51.120Z,15.46
2022-10-02T10:01:51.129Z,15.47
2022-10-02T10:02:51.136Z,15.55
2022-10-02T10:03:51.051Z,15.52
2022-10-02T10:05:05.473Z,15.55
2022-10-02T10:05:52.027Z,15.61
2022-10-02T10:06:50.991Z,15.58
2022-10-02T10:07:50.972Z,15.55
2022-10-02T10:08:50.982Z,15.54
2022-10-02T10:09:50.982Z,15.49
2022-10-02T10:10:50.951Z,15.46
2022-10-02T10:11:50.931Z,15.42
2022-10-02T10:12:50.919Z,15.40
2022-10-02T10:13:50.939Z,15.37
2022-10-02T10:14:50.959Z,15.35
2022-10-02T10:15:50.911Z,15.37
2022-10-02T10:16:50.921Z,15.36
2022-10-02T10:17:50.891Z,15.37
2022-10-02T10:18:50.899Z,15.36
2022-10-02T10:19:50.843Z,15.37
2022-10-02T10:20:50.844Z,15.37
2022-10-02T10:21:50.840Z,15.40
2022-10-02T10:22:50.851Z,15.46
2022-10-02T10:23:50.805Z,15.51
2022-10-02T10:24:50.904Z,15.52
2022-10-02T10:25:50.797Z,15.54
2022-10-02T10:26:50.791Z,15.57
2022-10-02T10:27:50.815Z,15.61
2022-10-02T10:28:50.745Z,15.64
2022-10-02T10:29:50.757Z,15.73
2022-10-02T10:30:50.800Z,15.77
2022-10-02T10:31:50.824Z,15.91
2022-10-02T10:32:50.824Z,15.97
2022-10-02T10:33:50.832Z,16.05
2022-10-02T10:34:50.892Z,16.13
2022-10-02T10:35:50.948Z,16.24
2022-10-02T10:36:50.895Z,16.28
2022-10-02T10:37:50.903Z,16.26
2022-10-02T10:38:50.665Z,16.23
2022-10-02T10:39:50.631Z,16.17
2022-10-02T10:40:50.627Z,16.16
2022-10-02T10:41:50.614Z,16.15
2022-10-02T10:43:07.083Z,16.16
2022-10-02T10:43:51.572Z,16.20
2022-10-02T10:44:50.576Z,16.16
2022-10-02T10:45:50.678Z,16.17
2022-10-02T10:46:50.564Z,16.21
2022-10-02T10:47:50.790Z,16.23
2022-10-02T10:48:50.651Z,16.29
2022-10-02T10:49:50.632Z,16.32
2022-10-02T10:50:50.588Z,16.38
2022-10-02T10:51:50.620Z,16.42
2022-10-02T10:52:50.553Z,16.43
2022-10-02T10:53:50.673Z,16.47
2022-10-02T10:54:50.775Z,16.50
2022-10-02T10:55:50.669Z,16.51
2022-10-02T10:56:50.668Z,16.43
2022-10-02T10:57:50.729Z,16.46
2022-10-02T10:58:50.516Z,16.51
2022-10-02T10:59:50.408Z,16.51
2022-10-02T11:00:50.510Z,16.53
2022-10-02T11:01:50.514Z,16.56
2022-10-02T11:02:50.401Z,16.58
2022-10-02T11:03:50.432Z,16.60
2022-10-02T11:04:50.360Z,16.66
2022-10-02T11:05:50.349Z,16.65
2022-10-02T11:06:50.329Z,16.56
2022-10-02T11:07:50.340Z,16.56
2022-10-02T11:08:50.308Z,16.60
2022-10-02T11:09:50.276Z,16.65
2022-10-02T11:10:50.321Z,16.71
2022-10-02T11:11:50.260Z,16.75
2022-10-02T11:12:50.261Z,16.84
2022-10-02T11:13:50.276Z,16.84
2022-10-02T11:14:50.234Z,16.84
2022-10-02T11:15:50.248Z,16.86
2022-10-02T11:16:50.309Z,16.86
2022-10-02T11:17:50.193Z,16.90
2022-10-02T11:18:50.188Z,16.96
2022-10-02T11:19:50.160Z,16.96
2022-10-02T11:20:50.169Z,16.97
2022-10-02T11:21:50.169Z,16.97
2022-10-02T11:22:50.157Z,16.99
2022-10-02T11:23:50.138Z,16.91
2022-10-02T11:24:50.141Z,16.90
2022-10-02T11:25:50.102Z,16.87
2022-10-02T11:26:50.114Z,16.90
2022-10-02T11:27:50.180Z,16.97
2022-10-02T11:28:50.106Z,17.04
2022-10-02T11:29:50.068Z,17.06
2022-10-02T11:30:50.061Z,17.12
2022-10-02T11:31:50.096Z,17.19
2022-10-02T11:32:50.038Z,17.26
2022-10-02T11:33:50.069Z,17.30
2022-10-02T11:34:50.027Z,17.19
2022-10-02T11:35:49.996Z,17.16
2022-10-02T11:36:49.993Z,17.06
2022-10-02T11:37:49.982Z,17.11
2022-10-02T11:38:49.978Z,17.14
2022-10-02T11:39:49.960Z,17.19
2022-10-02T11:40:49.953Z,17.26
2022-10-02T11:41:49.925Z,17.36
2022-10-02T11:42:49.926Z,17.48
2022-10-02T11:43:49.926Z,17.51
2022-10-02T11:44:49.913Z,17.51
2022-10-02T11:45:49.927Z,17.57
2022-10-02T11:46:50.205Z,17.67
2022-10-02T11:47:49.865Z,17.70
2022-10-02T11:48:49.865Z,17.68
2022-10-02T11:49:49.857Z,17.72
2022-10-02T11:50:49.826Z,17.70
2022-10-02T11:51:49.814Z,17.72
2022-10-02T11:52:49.826Z,17.60
2022-10-02T11:53:49.805Z,17.60
2022-10-02T11:54:49.825Z,17.60
2022-10-02T11:55:49.765Z,17.67
2022-10-02T11:56:49.797Z,17.65
2022-10-02T11:57:49.766Z,17.64
2022-10-02T11:58:49.745Z,17.64
2022-10-02T11:59:49.727Z,17.63
2022-10-02T12:00:49.769Z,17.59
2022-10-02T12:01:49.720Z,17.56
2022-10-02T12:02:49.902Z,17.52
2022-10-02T12:03:49.680Z,17.49
2022-10-02T12:04:49.678Z,17.48
2022-10-02T12:05:49.697Z,17.49
2022-10-02T12:06:49.783Z,17.49
2022-10-02T12:07:50.077Z,17.44
2022-10-02T12:08:49.638Z,17.42
2022-10-02T12:09:49.620Z,17.38
2022-10-02T12:10:49.605Z,17.36
2022-10-02T12:11:49.607Z,17.38
2022-10-02T12:12:49.590Z,17.44
2022-10-02T12:13:49.569Z,17.46
2022-10-02T12:14:49.585Z,17.46
2022-10-02T12:15:49.573Z,17.52
2022-10-02T12:16:49.572Z,17.54
2022-10-02T12:17:49.522Z,17.57
2022-10-02T12:18:49.521Z,17.59
2022-10-02T12:19:49.510Z,17.52
2022-10-02T12:20:49.542Z,17.52
2022-10-02T12:21:49.570Z,17.51
2022-10-02T12:22:49.575Z,17.44
2022-10-02T12:23:49.613Z,17.46
2022-10-02T12:24:54.653Z,17.56
2022-10-02T12:25:50.434Z,17.68
2022-10-02T12:26:49.686Z,17.71
2022-10-02T12:27:49.752Z,17.74
2022-10-02T12:28:49.627Z,17.85
2022-10-02T12:29:49.392Z,17.92
2022-10-02T12:30:49.394Z,17.87
2022-10-02T12:31:49.402Z,17.79
2022-10-02T12:32:49.367Z,17.70
2022-10-02T12:33:53.002Z,17.63
2022-10-02T12:34:50.356Z,17.49
2022-10-02T12:35:49.342Z,17.45
2022-10-02T12:36:49.362Z,17.30
2022-10-02T12:37:49.307Z,17.20
2022-10-02T12:38:49.306Z,17.15
2022-10-02T12:39:49.291Z,17.11
2022-10-02T12:40:49.294Z,17.08
2022-10-02T12:41:49.282Z,17.04
2022-10-02T12:42:49.262Z,16.97
2022-10-02T12:43:49.234Z,16.94
2022-10-02T12:44:49.323Z,16.91
2022-10-02T12:45:49.267Z,16.89
2022-10-02T12:46:49.216Z,16.90
2022-10-02T12:47:49.243Z,16.89
2022-10-02T12:48:49.195Z,16.87
2022-10-02T12:49:49.195Z,16.87
2022-10-02T12:50:49.167Z,16.86
2022-10-02T12:51:49.146Z,16.86
2022-10-02T12:52:49.147Z,16.84